createdAt,value
2018-10-19T00:00:41.619Z,13.75
2018-10-19T00:01:41.659Z,13.72
2018-10-19T00:02:41.675Z,13.71
2018-10-19T00:03:41.610Z,13.7
2018-10-19T00:04:41.671Z,13.69
2018-10-19T00:05:42.002Z,13.69
2018-10-19T00:06:41.630Z,13.65
2018-10-19T00:07:41.605Z,13.66
2018-10-19T00:08:41.624Z,13.66
2018-10-19T00:09:41.614Z,13.66
2018-10-19T00:10:41.655Z,13.65
2018-10-19T00:11:41.645Z,13.63
2018-10-19T00:12:42.104Z,13.63
2018-10-19T00:13:41.605Z,13.63
2018-10-19T00:14:41.609Z,13.62
2018-10-19T00:16:41.580Z,13.57
2018-10-19T00:17:41.585Z,13.58
2018-10-19T00:18:41.848Z,13.58
2018-10-19T00:19:41.594Z,13.55
2018-10-19T00:20:41.627Z,13.56
2018-10-19T00:21:41.593Z,13.56
2018-10-19T00:22:41.598Z,13.56
2018-10-19T00:23:41.600Z,13.58
2018-10-19T00:24:41.683Z,13.58
2018-10-19T00:25:41.608Z,13.57
2018-10-19T00:26:41.905Z,13.56
2018-10-19T00:27:41.650Z,13.54
2018-10-19T00:28:41.685Z,13.54
2018-10-19T00:29:41.613Z,13.51
2018-10-19T00:30:41.931Z,13.52
2018-10-19T00:31:41.597Z,13.51
2018-10-19T00:32:41.609Z,13.49
2018-10-19T00:33:41.651Z,13.49
2018-10-19T00:34:41.556Z,13.46
2018-10-19T00:35:41.712Z,13.45
2018-10-19T00:36:42.429Z,13.46
2018-10-19T00:37:41.641Z,13.42
2018-10-19T00:38:41.583Z,13.37
2018-10-19T00:39:41.793Z,13.37
2018-10-19T00:40:41.619Z,13.41
2018-10-19T00:41:41.693Z,13.37
2018-10-19T00:42:41.558Z,13.37
2018-10-19T00:43:41.684Z,13.36
2018-10-19T00:44:41.591Z,13.36
2018-10-19T00:45:41.923Z,13.36
2018-10-19T00:46:41.612Z,13.35
2018-10-19T00:47:41.641Z,13.35
2018-10-19T00:48:41.760Z,13.33
2018-10-19T00:49:41.732Z,13.32
2018-10-19T00:50:41.650Z,13.32
2018-10-19T00:51:41.549Z,13.32
2018-10-19T00:52:41.654Z,13.3
2018-10-19T00:53:41.558Z,13.3
2018-10-19T00:54:41.983Z,13.31
2018-10-19T00:55:41.808Z,13.3
2018-10-19T00:56:41.584Z,13.3
2018-10-19T00:57:41.579Z,13.31
2018-10-19T00:58:41.598Z,13.31
2018-10-19T00:59:41.751Z,13.31
2018-10-19T01:00:41.763Z,13.33
2018-10-19T01:01:41.647Z,13.31
2018-10-19T01:02:41.593Z,13.27
2018-10-19T01:03:41.610Z,13.29
2018-10-19T01:04:41.736Z,13.29
2018-10-19T01:05:41.721Z,13.29
2018-10-19T01:06:41.975Z,13.28
2018-10-19T01:07:41.658Z,13.29
2018-10-19T01:08:41.571Z,13.27
2018-10-19T01:09:41.648Z,13.26
2018-10-19T01:10:41.660Z,13.28
2018-10-19T01:11:41.532Z,13.25
2018-10-19T01:12:41.636Z,13.24
2018-10-19T01:13:41.762Z,13.19
2018-10-19T01:14:41.527Z,13.2
2018-10-19T01:15:41.617Z,13.06
2018-10-19T01:16:41.691Z,13.08
2018-10-19T01:17:41.653Z,13.09
2018-10-19T01:18:41.565Z,13.03
2018-10-19T01:19:41.570Z,13.03
2018-10-19T01:20:41.521Z,13
2018-10-19T01:21:41.729Z,13.01
2018-10-19T01:22:41.555Z,12.99
2018-10-19T01:23:41.592Z,13.01
2018-10-19T01:24:41.474Z,13
2018-10-19T01:25:41.806Z,13
2018-10-19T01:26:41.526Z,12.97
2018-10-19T01:27:41.829Z,12.9
2018-10-19T01:28:41.605Z,12.89
2018-10-19T01:29:41.545Z,12.87
2018-10-19T01:30:41.560Z,12.85
2018-10-19T01:31:41.527Z,12.87
2018-10-19T01:32:41.495Z,12.86
2018-10-19T01:33:41.615Z,12.87
2018-10-19T01:34:41.519Z,12.85
2018-10-19T01:35:41.631Z,12.87
2018-10-19T01:36:41.494Z,12.86
2018-10-19T01:37:41.793Z,12.84
2018-10-19T01:38:41.500Z,12.83
2018-10-19T01:39:41.532Z,12.84
2018-10-19T01:40:41.490Z,12.86
2018-10-19T01:41:41.825Z,12.83
2018-10-19T01:42:41.479Z,12.85
2018-10-19T01:43:41.549Z,12.83
2018-10-19T01:44:41.506Z,12.85
2018-10-19T01:45:41.758Z,12.82
2018-10-19T01:46:41.476Z,12.81
2018-10-19T01:47:41.597Z,12.8
2018-10-19T01:48:41.466Z,12.79
2018-10-19T01:49:41.657Z,12.79
2018-10-19T01:50:41.536Z,12.76
2018-10-19T01:51:41.462Z,12.73
2018-10-19T01:52:41.497Z,12.73
2018-10-19T01:53:41.501Z,12.7
2018-10-19T01:54:41.574Z,12.68
2018-10-19T01:55:41.506Z,12.68
2018-10-19T01:56:41.455Z,12.68
2018-10-19T01:57:41.557Z,12.64
2018-10-19T01:58:41.605Z,12.67
2018-10-19T01:59:41.444Z,12.65
2018-10-19T02:00:41.577Z,12.64
2018-10-19T02:01:42.196Z,12.64
2018-10-19T02:02:41.755Z,12.63
2018-10-19T02:03:41.847Z,12.62
2018-10-19T02:04:41.579Z,12.58
2018-10-19T02:05:41.451Z,12.57
2018-10-19T02:06:41.488Z,12.58
2018-10-19T02:07:41.671Z,12.58
2018-10-19T02:08:41.606Z,12.58
2018-10-19T02:09:41.477Z,12.58
2018-10-19T02:10:41.507Z,12.56
2018-10-19T02:11:41.552Z,12.56
2018-10-19T02:12:41.637Z,12.55
2018-10-19T02:13:41.471Z,12.52
2018-10-19T02:14:41.743Z,12.51
2018-10-19T02:15:41.592Z,12.51
2018-10-19T02:16:41.471Z,12.51
2018-10-19T02:17:41.648Z,12.5
2018-10-19T02:18:41.685Z,12.5
2018-10-19T02:19:41.552Z,12.48
2018-10-19T02:20:41.486Z,12.45
2018-10-19T02:21:41.473Z,12.45
2018-10-19T02:22:41.478Z,12.4
2018-10-19T02:23:41.601Z,12.42
2018-10-19T02:24:41.488Z,12.41
2018-10-19T02:25:41.448Z,12.38
2018-10-19T02:26:41.506Z,12.38
2018-10-19T02:27:41.677Z,12.38
2018-10-19T02:28:41.513Z,12.37
2018-10-19T02:29:41.498Z,12.37
2018-10-19T02:30:41.512Z,12.36
2018-10-19T02:31:41.519Z,12.37
2018-10-19T02:32:41.402Z,12.34
2018-10-19T02:33:41.821Z,12.34
2018-10-19T02:34:41.453Z,12.33
2018-10-19T02:35:41.706Z,12.31
2018-10-19T02:36:41.447Z,12.31
2018-10-19T02:37:41.432Z,12.31
2018-10-19T02:38:41.585Z,12.32
2018-10-19T02:39:41.726Z,12.31
2018-10-19T02:40:41.586Z,12.27
2018-10-19T02:41:41.742Z,12.27
2018-10-19T02:42:41.847Z,12.26
2018-10-19T02:43:41.446Z,12.27
2018-10-19T02:44:41.390Z,12.26
2018-10-19T02:45:41.580Z,12.27
2018-10-19T02:46:41.470Z,12.25
2018-10-19T02:47:41.406Z,12.24
2018-10-19T02:48:41.806Z,12.22
2018-10-19T02:49:41.414Z,12.23
2018-10-19T02:50:41.474Z,12.21
2018-10-19T02:51:41.420Z,12.2
2018-10-19T02:52:41.409Z,12.14
2018-10-19T02:53:41.413Z,12.05
2018-10-19T02:54:41.381Z,12.06
2018-10-19T02:55:41.430Z,12.05
2018-10-19T02:56:41.514Z,12.05
2018-10-19T02:57:41.759Z,12.07
2018-10-19T02:58:41.634Z,12.06
2018-10-19T02:59:41.677Z,12.04
2018-10-19T03:00:41.640Z,12.05
2018-10-19T03:01:41.412Z,12.03
2018-10-19T03:02:41.381Z,12.02
2018-10-19T03:03:41.563Z,12.03
2018-10-19T03:04:41.440Z,12.03
2018-10-19T03:05:41.417Z,12.06
2018-10-19T03:06:41.417Z,12.03
2018-10-19T03:07:41.440Z,12.02
2018-10-19T03:08:41.606Z,11.97
2018-10-19T03:09:41.466Z,11.95
2018-10-19T03:10:41.492Z,11.95
2018-10-19T03:11:42.726Z,11.93
2018-10-19T03:12:41.402Z,11.94
2018-10-19T03:13:41.383Z,11.9
2018-10-19T03:14:41.396Z,11.92
2018-10-19T03:15:41.531Z,11.87
2018-10-19T03:16:41.379Z,11.84
2018-10-19T03:17:41.392Z,11.81
2018-10-19T03:18:41.400Z,11.8
2018-10-19T03:19:41.761Z,11.77
2018-10-19T03:20:41.384Z,11.77
2018-10-19T03:21:41.393Z,11.77
2018-10-19T03:23:08.357Z,11.77
2018-10-19T03:24:07.552Z,11.79
2018-10-19T03:25:07.549Z,11.78
2018-10-19T03:26:07.507Z,11.76
2018-10-19T03:27:08.741Z,11.77
2018-10-19T03:28:07.556Z,11.77
2018-10-19T03:29:08.391Z,11.8
2018-10-19T03:30:07.584Z,11.8
2018-10-19T03:31:08.898Z,11.81
2018-10-19T03:32:07.623Z,11.81
2018-10-19T03:33:08.353Z,11.81
2018-10-19T03:34:07.864Z,11.78
2018-10-19T03:35:08.665Z,11.78
2018-10-19T03:36:07.474Z,11.79
2018-10-19T03:37:07.519Z,11.78
2018-10-19T03:38:07.874Z,11.8
2018-10-19T03:39:08.562Z,11.79
2018-10-19T03:40:07.558Z,11.75
2018-10-19T03:41:08.160Z,11.75
2018-10-19T03:42:07.591Z,11.72
2018-10-19T03:43:07.731Z,11.72
2018-10-19T03:44:07.628Z,11.72
2018-10-19T03:45:08.610Z,11.72
2018-10-19T03:46:07.824Z,11.71
2018-10-19T03:47:08.362Z,11.7
2018-10-19T03:48:07.576Z,11.7
2018-10-19T03:49:08.223Z,11.7
2018-10-19T03:50:07.495Z,11.69
2018-10-19T03:51:08.727Z,11.65
2018-10-19T03:52:07.501Z,11.63
2018-10-19T03:53:08.268Z,11.63
2018-10-19T03:54:07.467Z,11.63
2018-10-19T03:55:07.532Z,11.62
2018-10-19T03:56:07.632Z,11.59
2018-10-19T03:57:08.223Z,11.54
2018-10-19T03:58:07.498Z,11.52
2018-10-19T03:59:08.363Z,11.52
2018-10-19T04:00:07.907Z,11.52
2018-10-19T04:01:07.566Z,11.52
2018-10-19T04:02:07.592Z,11.51
2018-10-19T04:03:08.780Z,11.51
2018-10-19T04:04:07.533Z,11.51
2018-10-19T04:05:08.467Z,11.51
2018-10-19T04:06:07.598Z,11.5
2018-10-19T04:07:07.569Z,11.5
2018-10-19T04:08:07.498Z,11.48
2018-10-19T04:09:08.494Z,11.48
2018-10-19T04:10:07.568Z,11.47
2018-10-19T04:11:08.152Z,11.47
2018-10-19T04:12:07.495Z,11.46
2018-10-19T04:13:07.702Z,11.44
2018-10-19T04:14:07.456Z,11.4
2018-10-19T04:15:08.452Z,11.41
2018-10-19T04:16:07.501Z,11.4
2018-10-19T04:17:08.666Z,11.4
2018-10-19T04:18:07.448Z,11.4
2018-10-19T04:19:07.427Z,11.4
2018-10-19T04:20:07.591Z,11.37
2018-10-19T04:21:08.278Z,11.39
2018-10-19T04:22:07.476Z,11.35
2018-10-19T04:23:08.176Z,11.36
2018-10-19T04:24:07.895Z,11.37
2018-10-19T04:25:07.466Z,11.34
2018-10-19T04:26:07.913Z,11.34
2018-10-19T04:27:08.400Z,11.33
2018-10-19T04:28:07.438Z,11.32
2018-10-19T04:29:08.560Z,11.29
2018-10-19T04:30:07.432Z,11.28
2018-10-19T04:31:07.485Z,11.27
2018-10-19T04:32:07.598Z,11.27
2018-10-19T04:33:08.644Z,11.25
2018-10-19T04:34:07.820Z,11.24
2018-10-19T04:35:08.198Z,11.24
2018-10-19T04:36:07.495Z,11.22
2018-10-19T04:37:07.404Z,11.21
2018-10-19T04:38:07.383Z,11.18
2018-10-19T04:39:08.464Z,11.18
2018-10-19T04:40:07.398Z,11.14
2018-10-19T04:41:08.388Z,11.12
2018-10-19T04:42:09.238Z,11.08
2018-10-19T04:43:07.430Z,11.04
2018-10-19T04:44:07.639Z,11.02
2018-10-19T04:45:08.043Z,10.99
2018-10-19T04:46:07.455Z,10.99
2018-10-19T04:47:08.044Z,10.97
2018-10-19T04:48:07.556Z,10.92
2018-10-19T04:49:07.510Z,10.91
2018-10-19T04:50:07.423Z,10.9
2018-10-19T04:51:08.338Z,10.85
2018-10-19T04:52:08.716Z,10.84
2018-10-19T04:53:08.427Z,10.83
2018-10-19T04:54:07.454Z,10.82
2018-10-19T04:55:07.454Z,10.81
2018-10-19T04:56:07.527Z,10.82
2018-10-19T04:57:08.163Z,10.83
2018-10-19T04:58:07.395Z,10.79
2018-10-19T04:59:08.541Z,10.8
2018-10-19T05:00:07.418Z,10.8
2018-10-19T05:01:07.455Z,10.8
2018-10-19T05:02:07.417Z,10.81
2018-10-19T05:03:08.424Z,10.79
2018-10-19T05:04:07.847Z,10.8
2018-10-19T05:05:09.546Z,10.79
2018-10-19T05:06:08.092Z,10.79
2018-10-19T05:07:07.485Z,10.83
2018-10-19T05:08:08.736Z,10.82
2018-10-19T05:09:07.472Z,10.84
2018-10-19T05:10:07.398Z,10.85
2018-10-19T05:11:08.068Z,10.89
2018-10-19T05:12:07.349Z,10.88
2018-10-19T05:13:08.899Z,10.86
2018-10-19T05:14:08.289Z,10.91
2018-10-19T05:15:07.837Z,10.9
2018-10-19T05:17:08.286Z,10.91
2018-10-19T05:18:07.365Z,10.92
2018-10-19T05:19:07.514Z,10.92
2018-10-19T05:20:08.107Z,10.89
2018-10-19T05:21:07.743Z,10.9
2018-10-19T05:22:07.428Z,10.92
2018-10-19T05:23:08.114Z,10.9
2018-10-19T05:24:07.335Z,10.92
2018-10-19T05:25:07.366Z,10.89
2018-10-19T05:26:07.953Z,10.87
2018-10-19T05:27:07.318Z,10.87
2018-10-19T05:28:07.381Z,10.88
2018-10-19T05:29:08.041Z,10.89
2018-10-19T05:30:07.569Z,10.89
2018-10-19T05:31:07.378Z,10.89
2018-10-19T05:32:07.937Z,10.89
2018-10-19T05:33:07.742Z,10.93
2018-10-19T05:34:07.414Z,10.93
2018-10-19T05:35:07.909Z,10.93
2018-10-19T05:36:07.484Z,10.94
2018-10-19T05:37:07.395Z,10.94
2018-10-19T05:38:08.230Z,10.94
2018-10-19T05:39:07.410Z,10.92
2018-10-19T05:40:07.540Z,10.92
2018-10-19T05:41:08.199Z,10.9
2018-10-19T05:42:07.614Z,10.92
2018-10-19T05:43:07.443Z,10.92
2018-10-19T05:44:08.754Z,10.9
2018-10-19T05:45:07.344Z,10.9
2018-10-19T05:46:07.350Z,10.9
2018-10-19T05:47:08.092Z,10.93
2018-10-19T05:48:07.331Z,10.93
2018-10-19T05:49:07.583Z,10.94
2018-10-19T05:50:08.153Z,10.94
2018-10-19T05:51:07.313Z,10.96
2018-10-19T05:52:08.144Z,10.96
2018-10-19T05:53:08.098Z,10.95
2018-10-19T05:54:07.292Z,10.98
2018-10-19T05:55:07.356Z,10.98
2018-10-19T05:56:08.009Z,11
2018-10-19T05:57:07.614Z,11
2018-10-19T05:58:07.545Z,10.99
2018-10-19T05:59:08.346Z,10.98
2018-10-19T06:00:07.345Z,10.98
2018-10-19T06:01:07.284Z,10.98
2018-10-19T06:02:08.728Z,10.95
2018-10-19T06:03:07.487Z,10.96
2018-10-19T06:04:07.376Z,10.96
2018-10-19T06:05:08.274Z,10.96
2018-10-19T06:06:07.313Z,10.99
2018-10-19T06:07:07.388Z,10.98
2018-10-19T06:08:08.024Z,10.96
2018-10-19T06:09:07.333Z,10.98
2018-10-19T06:10:09.569Z,11.01
2018-10-19T06:11:10.859Z,10.97
2018-10-19T06:12:09.560Z,10.99
2018-10-19T06:13:09.661Z,10.99
2018-10-19T06:14:10.559Z,11
2018-10-19T06:15:09.607Z,11.01
2018-10-19T06:16:09.617Z,11.05
2018-10-19T06:17:10.154Z,11.05
2018-10-19T06:18:09.585Z,11.05
2018-10-19T06:19:09.890Z,11.07
2018-10-19T06:20:10.865Z,11.07
2018-10-19T06:21:10.738Z,11.07
2018-10-19T06:22:09.632Z,11.07
2018-10-19T06:23:10.525Z,11.08
2018-10-19T06:24:09.543Z,11.08
2018-10-19T06:25:09.558Z,11.07
2018-10-19T06:26:11.613Z,11.05
2018-10-19T06:27:09.786Z,11.06
2018-10-19T06:28:09.609Z,11.07
2018-10-19T06:29:10.313Z,11.06
2018-10-19T06:30:09.548Z,11.07
2018-10-19T06:31:09.561Z,11.07
2018-10-19T06:32:10.232Z,11.07
2018-10-19T06:33:09.553Z,11.07
2018-10-19T06:34:09.620Z,11.07
2018-10-19T06:35:10.357Z,11.07
2018-10-19T06:36:09.520Z,11.06
2018-10-19T06:37:09.518Z,11.06
2018-10-19T06:38:10.657Z,11.04
2018-10-19T06:39:09.553Z,11.06
2018-10-19T06:40:09.512Z,11.08
2018-10-19T06:41:10.336Z,11.11
2018-10-19T06:42:09.755Z,11.09
2018-10-19T06:43:09.645Z,11.12
2018-10-19T06:44:10.575Z,11.13
2018-10-19T06:45:09.673Z,11.16
2018-10-19T06:46:09.611Z,11.16
2018-10-19T06:47:11.360Z,11.14
2018-10-19T06:48:09.529Z,11.17
2018-10-19T06:49:10.603Z,11.15
2018-10-19T06:50:10.853Z,11.08
2018-10-19T06:51:09.720Z,10.93
2018-10-19T06:52:09.535Z,10.89
2018-10-19T06:53:10.793Z,10.87
2018-10-19T06:54:09.572Z,10.91
2018-10-19T06:55:09.616Z,10.86
2018-10-19T06:56:10.354Z,10.87
2018-10-19T06:57:09.528Z,10.91
2018-10-19T06:58:09.484Z,10.93
2018-10-19T06:59:11.607Z,10.94
2018-10-19T07:00:09.540Z,10.94
2018-10-19T07:01:09.537Z,10.98
2018-10-19T07:02:10.452Z,11.01
2018-10-19T07:03:09.605Z,11.03
2018-10-19T07:04:09.988Z,11.05
2018-10-19T07:05:10.288Z,11.06
2018-10-19T07:06:11.361Z,11.07
2018-10-19T07:07:09.494Z,11.07
2018-10-19T07:08:10.658Z,11.06
2018-10-19T07:09:09.590Z,11.06
2018-10-19T07:10:09.476Z,11.08
2018-10-19T07:11:10.674Z,11.08
2018-10-19T07:12:10.510Z,11.08
2018-10-19T07:13:09.535Z,11.09
2018-10-19T07:14:10.256Z,11.11
2018-10-19T07:15:09.477Z,11.12
2018-10-19T07:16:09.789Z,11.12
2018-10-19T07:17:10.644Z,11.12
2018-10-19T07:18:10.086Z,11.11
2018-10-19T07:19:10.644Z,11.11
2018-10-19T07:20:10.862Z,11.07
2018-10-19T07:21:09.614Z,11.07
2018-10-19T07:22:09.441Z,11.11
2018-10-19T07:23:10.897Z,11.14
2018-10-19T07:24:09.465Z,11.19
2018-10-19T07:26:10.668Z,11.25
2018-10-19T07:27:09.449Z,11.24
2018-10-19T07:28:09.445Z,11.24
2018-10-19T07:29:10.361Z,11.25
2018-10-19T07:30:09.720Z,11.26
2018-10-19T07:31:09.474Z,11.28
2018-10-19T07:32:10.471Z,11.31
2018-10-19T07:33:09.428Z,11.32
2018-10-19T07:34:09.570Z,11.32
2018-10-19T07:35:10.532Z,11.36
2018-10-19T07:36:09.628Z,11.34
2018-10-19T07:37:09.517Z,11.37
2018-10-19T07:38:10.343Z,11.37
2018-10-19T07:39:09.909Z,11.38
2018-10-19T07:40:09.586Z,11.39
2018-10-19T07:41:10.802Z,11.4
2018-10-19T07:42:10.463Z,11.44
2018-10-19T07:43:09.445Z,11.45
2018-10-19T07:44:10.189Z,11.49
2018-10-19T07:45:09.550Z,11.51
2018-10-19T07:46:09.455Z,11.48
2018-10-19T07:47:10.612Z,11.48
2018-10-19T07:48:12.746Z,11.48
2018-10-19T07:49:09.833Z,11.52
2018-10-19T07:50:09.934Z,11.51
2018-10-19T07:51:09.432Z,11.53
2018-10-19T07:52:09.429Z,11.57
2018-10-19T07:53:09.995Z,11.56
2018-10-19T07:54:10.408Z,11.61
2018-10-19T07:55:09.456Z,11.64
2018-10-19T07:56:10.325Z,11.69
2018-10-19T07:57:09.806Z,11.71
2018-10-19T07:58:09.580Z,11.75
2018-10-19T07:59:10.683Z,11.8
2018-10-19T08:00:10.114Z,11.87
2018-10-19T08:01:10.272Z,11.92
2018-10-19T08:02:10.231Z,11.91
2018-10-19T08:02:44.324Z,11.97
2018-10-19T08:03:43.918Z,12.01
2018-10-19T08:04:43.942Z,12.02
2018-10-19T08:05:44.337Z,12.03
2018-10-19T08:06:44.335Z,12.09
2018-10-19T08:07:44.116Z,12.09
2018-10-19T08:08:44.292Z,12.13
2018-10-19T08:09:43.970Z,12.14
2018-10-19T08:10:44.203Z,12.17
2018-10-19T08:11:44.068Z,12.22
2018-10-19T08:12:43.938Z,12.24
2018-10-19T08:13:43.999Z,12.32
2018-10-19T08:14:44.105Z,12.36
2018-10-19T08:15:44.092Z,12.4
2018-10-19T08:16:44.095Z,12.46
2018-10-19T08:17:43.896Z,12.48
2018-10-19T08:18:44.123Z,12.54
2018-10-19T08:19:44.087Z,12.57
2018-10-19T08:20:43.944Z,12.63
2018-10-19T08:21:44.251Z,12.65
2018-10-19T08:22:43.926Z,12.69
2018-10-19T08:23:43.965Z,12.72
2018-10-19T08:24:43.901Z,12.75
2018-10-19T08:25:43.932Z,12.77
2018-10-19T08:26:44.187Z,12.82
2018-10-19T08:27:44.419Z,12.86
2018-10-19T08:28:43.941Z,12.87
2018-10-19T08:29:43.910Z,12.9
2018-10-19T08:30:43.884Z,12.95
2018-10-19T08:31:44.320Z,12.96
2018-10-19T08:32:43.933Z,13
2018-10-19T08:33:43.883Z,12.98
2018-10-19T08:34:43.954Z,13.02
2018-10-19T08:35:43.885Z,13.06
2018-10-19T08:36:43.911Z,13.07
2018-10-19T08:37:43.920Z,13.09
2018-10-19T08:38:43.952Z,13.14
2018-10-19T08:39:43.873Z,13.16
2018-10-19T08:40:43.882Z,13.15
2018-10-19T08:41:45.328Z,13.17
2018-10-19T08:42:44.270Z,13.21
2018-10-19T08:43:43.927Z,13.25
2018-10-19T08:44:43.856Z,13.28
2018-10-19T08:45:43.959Z,13.33
2018-10-19T08:46:43.864Z,13.35
2018-10-19T08:47:45.252Z,13.38
2018-10-19T08:48:44.414Z,13.4
2018-10-19T08:49:43.961Z,13.41
2018-10-19T08:50:44.258Z,13.45
2018-10-19T08:51:43.929Z,13.47
2018-10-19T08:52:43.872Z,13.51
2018-10-19T08:53:44.427Z,13.55
2018-10-19T08:54:45.177Z,13.61
2018-10-19T08:55:43.855Z,13.68
2018-10-19T08:56:43.901Z,13.72
2018-10-19T08:57:44.723Z,13.8
2018-10-19T08:58:45.063Z,13.84
2018-10-19T08:59:44.268Z,13.88
2018-10-19T09:00:44.071Z,13.97
2018-10-19T09:01:43.856Z,14.01
2018-10-19T09:02:43.905Z,14.1
2018-10-19T09:03:43.845Z,14.15
2018-10-19T09:04:43.813Z,14.22
2018-10-19T09:05:43.844Z,14.25
2018-10-19T09:06:43.880Z,14.29
2018-10-19T09:07:44.243Z,14.32
2018-10-19T09:08:43.874Z,14.36
2018-10-19T09:09:43.878Z,14.42
2018-10-19T09:10:44.373Z,14.48
2018-10-19T09:11:44.483Z,14.48
2018-10-19T09:12:45.178Z,14.49
2018-10-19T09:13:43.863Z,14.54
2018-10-19T09:14:43.854Z,14.59
2018-10-19T09:15:43.885Z,14.61
2018-10-19T09:16:43.832Z,14.68
2018-10-19T09:17:43.874Z,14.74
2018-10-19T09:18:44.116Z,14.78
2018-10-19T09:19:43.823Z,14.78
2018-10-19T09:20:43.892Z,14.78
2018-10-19T09:21:43.841Z,14.8
2018-10-19T09:22:43.959Z,14.85
2018-10-19T09:23:43.794Z,14.87
2018-10-19T09:24:43.866Z,14.92
2018-10-19T09:25:43.826Z,14.98
2018-10-19T09:26:43.861Z,15
2018-10-19T09:27:43.843Z,15.02
2018-10-19T09:28:43.924Z,15.04
2018-10-19T09:29:43.829Z,15.05
2018-10-19T09:30:43.827Z,15.1
2018-10-19T09:31:43.846Z,15.11
2018-10-19T09:32:43.824Z,15.14
2018-10-19T09:33:44.004Z,15.17
2018-10-19T09:34:43.800Z,15.19
2018-10-19T09:35:45.472Z,15.22
2018-10-19T09:36:45.865Z,15.24
2018-10-19T09:37:44.139Z,15.28
2018-10-19T09:38:43.956Z,15.3
2018-10-19T09:39:43.817Z,15.34
2018-10-19T09:40:44.249Z,15.37
2018-10-19T09:41:43.812Z,15.41
2018-10-19T09:42:43.869Z,15.41
2018-10-19T09:43:43.791Z,15.43
2018-10-19T09:44:44.058Z,15.46
2018-10-19T09:45:43.791Z,15.48
2018-10-19T09:46:43.848Z,15.52
2018-10-19T09:47:43.926Z,15.56
2018-10-19T09:48:43.833Z,15.58
2018-10-19T09:49:43.818Z,15.63
2018-10-19T09:50:43.837Z,15.6
2018-10-19T09:51:43.818Z,15.62
2018-10-19T09:52:43.887Z,15.64
2018-10-19T09:53:43.834Z,15.64
2018-10-19T09:54:44.079Z,15.7
2018-10-19T09:55:43.909Z,15.72
2018-10-19T09:56:43.890Z,15.76
2018-10-19T09:57:43.830Z,15.78
2018-10-19T09:58:43.795Z,15.81
2018-10-19T09:59:43.824Z,15.82
2018-10-19T10:00:43.986Z,15.83
2018-10-19T10:01:43.907Z,15.88
2018-10-19T10:02:43.821Z,15.89
2018-10-19T10:03:43.861Z,15.92
2018-10-19T10:04:43.851Z,15.97
2018-10-19T10:05:43.836Z,15.99
2018-10-19T10:06:43.856Z,16.05
2018-10-19T10:07:44.327Z,16.07
2018-10-19T10:08:43.805Z,16.1
2018-10-19T10:09:43.853Z,16.1
2018-10-19T10:10:43.885Z,16.13
2018-10-19T10:11:43.757Z,16.19
2018-10-19T10:12:43.774Z,16.21
2018-10-19T10:13:43.861Z,16.24
2018-10-19T10:14:44.546Z,16.23
2018-10-19T10:15:44.492Z,16.22
2018-10-19T10:16:43.844Z,16.22
2018-10-19T10:17:43.825Z,16.23
2018-10-19T10:18:43.741Z,16.24
2018-10-19T10:19:43.930Z,16.26
2018-10-19T10:20:43.737Z,16.29
2018-10-19T10:21:43.818Z,16.31
2018-10-19T10:22:43.864Z,16.31
2018-10-19T10:23:44.050Z,16.32
2018-10-19T10:24:44.787Z,16.35
2018-10-19T10:25:44.261Z,16.37
2018-10-19T10:26:43.764Z,16.42
2018-10-19T10:27:44.265Z,16.5
2018-10-19T10:28:43.795Z,16.52
2018-10-19T10:29:43.732Z,16.54
2018-10-19T10:30:43.718Z,16.58
2018-10-19T10:31:43.941Z,16.54
2018-10-19T10:32:43.735Z,16.55
2018-10-19T10:33:43.769Z,16.59
2018-10-19T10:34:43.821Z,16.61
2018-10-19T10:35:43.745Z,16.62
2018-10-19T10:36:43.721Z,16.6
2018-10-19T10:37:43.711Z,16.61
2018-10-19T10:38:44.496Z,16.64
2018-10-19T10:39:43.701Z,16.65
2018-10-19T10:40:43.724Z,16.68
2018-10-19T10:41:43.724Z,16.72
2018-10-19T10:42:43.747Z,16.77
2018-10-19T10:43:43.770Z,16.76
2018-10-19T10:44:43.701Z,16.75
2018-10-19T10:45:43.720Z,16.77
2018-10-19T10:46:43.898Z,16.78
2018-10-19T10:47:43.775Z,16.74
2018-10-19T10:48:43.851Z,16.77
2018-10-19T10:49:43.708Z,16.79
2018-10-19T10:50:43.693Z,16.8
2018-10-19T10:51:43.698Z,16.79
2018-10-19T10:52:43.757Z,16.78
2018-10-19T10:53:43.756Z,16.79
2018-10-19T10:54:43.712Z,16.79
2018-10-19T10:55:44.013Z,16.82
2018-10-19T10:56:43.736Z,16.82
2018-10-19T10:57:43.722Z,16.87
2018-10-19T10:58:43.742Z,16.86
2018-10-19T10:59:43.693Z,16.85
2018-10-19T11:00:43.733Z,16.85
2018-10-19T11:01:43.714Z,16.85
2018-10-19T11:02:43.645Z,16.84
2018-10-19T11:03:43.834Z,16.87
2018-10-19T11:04:43.721Z,16.93
2018-10-19T11:05:43.677Z,16.92
2018-10-19T11:06:44.466Z,16.95
2018-10-19T11:07:44.867Z,16.98
2018-10-19T11:08:43.699Z,17.05
2018-10-19T11:09:43.691Z,17.05
2018-10-19T11:10:43.870Z,17.08
2018-10-19T11:11:43.867Z,17.1
2018-10-19T11:12:43.776Z,17.11
2018-10-19T11:13:43.708Z,17.13
2018-10-19T11:14:43.661Z,17.17
2018-10-19T11:15:43.664Z,17.2
2018-10-19T11:16:43.727Z,17.23
2018-10-19T11:17:43.754Z,17.24
2018-10-19T11:18:43.828Z,17.27
2018-10-19T11:19:43.720Z,17.29
2018-10-19T11:20:44.258Z,17.3
2018-10-19T11:21:43.630Z,17.35
2018-10-19T11:22:43.682Z,17.37
2018-10-19T11:23:43.674Z,17.39
2018-10-19T11:24:43.820Z,17.43
2018-10-19T11:25:43.795Z,17.46
2018-10-19T11:26:43.867Z,17.5
2018-10-19T11:27:43.747Z,17.49
2018-10-19T11:28:43.847Z,17.52
2018-10-19T11:29:43.829Z,17.54
2018-10-19T11:30:44.720Z,17.56
2018-10-19T11:31:43.716Z,17.58
2018-10-19T11:32:43.621Z,17.63
2018-10-19T11:33:43.744Z,17.64
2018-10-19T11:34:43.930Z,17.68
2018-10-19T11:35:43.694Z,17.68
2018-10-19T11:36:43.728Z,17.67
2018-10-19T11:37:44.388Z,17.63
2018-10-19T11:38:43.643Z,17.65
2018-10-19T11:39:43.626Z,17.74
2018-10-19T11:40:43.665Z,17.78
2018-10-19T11:41:43.717Z,17.87
2018-10-19T11:42:43.726Z,17.87
2018-10-19T11:43:43.650Z,17.84
2018-10-19T11:44:43.614Z,17.88
2018-10-19T11:45:43.690Z,17.84
2018-10-19T11:46:43.703Z,17.85
2018-10-19T11:47:43.631Z,17.86
2018-10-19T11:48:44.323Z,17.86
2018-10-19T11:49:43.661Z,17.84
2018-10-19T11:50:43.707Z,17.8
2018-10-19T11:51:43.758Z,17.92
2018-10-19T11:52:44.128Z,17.87
2018-10-19T11:53:43.930Z,17.99
2018-10-19T11:54:43.632Z,17.97
2018-10-19T11:55:43.643Z,17.96
2018-10-19T11:56:43.638Z,18
2018-10-19T11:57:43.648Z,18
2018-10-19T11:58:43.825Z,18.01
2018-10-19T11:59:43.679Z,18.02
2018-10-19T12:00:43.776Z,18.02
2018-10-19T12:01:43.603Z,17.99
2018-10-19T12:02:43.621Z,17.98
2018-10-19T12:03:44.749Z,17.96
2018-10-19T12:04:43.727Z,17.94
2018-10-19T12:05:43.567Z,18.05
2018-10-19T12:06:43.600Z,18
2018-10-19T12:07:43.648Z,18.02
2018-10-19T12:08:43.597Z,18.01
2018-10-19T12:09:43.784Z,18.01
2018-10-19T12:10:44.754Z,18.03
2018-10-19T12:11:43.572Z,18.06
2018-10-19T12:12:43.590Z,18.14
2018-10-19T12:13:43.599Z,18.19
2018-10-19T12:14:43.608Z,18.29
2018-10-19T12:15:43.573Z,18.27
2018-10-19T12:16:45.322Z,18.29
2018-10-19T12:17:43.592Z,18.35
2018-10-19T12:18:43.667Z,18.43
2018-10-19T12:19:43.567Z,18.46
2018-10-19T12:20:43.982Z,18.38
2018-10-19T12:21:43.601Z,18.38
2018-10-19T12:22:43.579Z,18.41
2018-10-19T12:23:43.563Z,18.48
2018-10-19T12:24:43.590Z,18.49
2018-10-19T12:25:43.610Z,18.48
2018-10-19T12:26:43.633Z,18.47
2018-10-19T12:27:43.556Z,18.44
2018-10-19T12:28:43.549Z,18.51
2018-10-19T12:29:43.711Z,18.56
2018-10-19T12:30:43.642Z,18.56
2018-10-19T12:31:43.589Z,18.57
2018-10-19T12:32:44.029Z,18.57
2018-10-19T12:33:43.632Z,18.69
2018-10-19T12:34:43.597Z,18.65
2018-10-19T12:35:43.944Z,18.61
2018-10-19T12:36:43.554Z,18.56
2018-10-19T12:37:43.594Z,18.56
2018-10-19T12:38:43.849Z,18.57
2018-10-19T12:39:43.630Z,18.56
2018-10-19T12:40:43.533Z,18.61
2018-10-19T12:41:43.541Z,18.67
2018-10-19T12:42:43.740Z,18.67
2018-10-19T12:43:43.578Z,18.68
2018-10-19T12:44:43.563Z,18.64
2018-10-19T12:45:43.666Z,18.62
2018-10-19T12:46:43.736Z,18.65
2018-10-19T12:47:43.626Z,18.67
2018-10-19T12:48:43.582Z,18.66
2018-10-19T12:49:43.692Z,18.64
2018-10-19T12:50:43.829Z,18.64
2018-10-19T12:51:43.608Z,18.57
2018-10-19T12:52:44.356Z,18.53
2018-10-19T12:53:43.862Z,18.54
2018-10-19T12:54:43.527Z,18.49
2018-10-19T12:55:43.552Z,18.54
2018-10-19T12:56:43.833Z,18.6
2018-10-19T12:57:43.792Z,18.67
2018-10-19T12:58:43.581Z,18.61